createdAt,value
2019-04-21T10:23:35.885Z,46.50
2019-04-21T10:26:22.134Z,48.20
2019-04-21T10:29:29.428Z,47.30
2019-04-21T10:32:32.394Z,50.60
2019-04-21T10:35:39.286Z,49.10
2019-04-21T10:38:48.749Z,48.00
2019-04-21T10:41:51.156Z,47.90
2019-04-21T10:44:56.618Z,47.90
2019-04-21T10:48:00.937Z,47.20
2019-04-21T10:51:05.342Z,42.50
2019-04-21T10:54:09.393Z,42.40
2019-04-21T10:57:16.638Z,39.60
2019-04-21T11:00:26.166Z,42.00
2019-04-21T11:03:33.261Z,40.80
2019-04-21T11:06:38.797Z,39.40
2019-04-21T11:09:44.262Z,40.00
2019-04-21T11:12:48.375Z,40.50
2019-04-21T11:15:52.974Z,42.30
2019-04-21T11:18:57.960Z,42.20
2019-04-21T11:22:20.899Z,42.90
2019-04-21T11:25:26.234Z,40.70
2019-04-21T11:28:31.210Z,39.60
2019-04-21T11:31:36.783Z,39.50
2019-04-21T11:34:41.301Z,39.60
2019-04-21T11:37:48.259Z,39.30
2019-04-21T11:40:52.178Z,39.60
2019-04-21T11:43:57.094Z,39.60
2019-04-21T11:47:02.732Z,39.40
2019-04-21T11:50:07.400Z,40.00
2019-04-21T11:53:12.731Z,40.30
2019-04-21T11:56:17.195Z,41.20
2019-04-21T11:59:21.787Z,41.30
2019-04-21T12:02:27.931Z,41.80
2019-04-21T12:05:33.041Z,41.20
2019-04-21T12:08:42.188Z,41.80
2019-04-21T12:11:43.238Z,41.30
2019-04-21T12:14:50.186Z,40.40
2019-04-21T12:17:54.447Z,41.00
2019-04-21T12:20:58.519Z,40.80
2019-04-21T12:24:02.686Z,41.00
2019-04-21T12:27:07.883Z,41.00
2019-04-21T12:34:14.090Z,40.40
2019-04-21T12:37:19.242Z,40.70
2019-04-21T12:40:24.328Z,39.80
2019-04-21T12:43:28.597Z,40.10
2019-04-21T12:46:33.877Z,39.50
2019-04-21T12:49:38.068Z,38.10
2019-04-21T12:52:45.075Z,36.80
2019-04-21T12:55:49.945Z,35.10
2019-04-21T12:58:55.350Z,35.40
2019-04-21T13:01:59.440Z,35.50
2019-04-21T13:05:04.423Z,37.30
2019-04-21T13:08:09.212Z,37.40
2019-04-21T13:11:13.242Z,38.60
2019-04-21T13:14:17.877Z,39.00
2019-04-21T13:17:21.793Z,39.30
2019-04-21T13:20:25.771Z,40.30
2019-04-21T13:23:31.234Z,40.90
2019-04-21T13:26:42.959Z,41.10
2019-04-21T13:29:44.044Z,40.20
2019-04-21T13:32:49.251Z,39.60
2019-04-21T13:35:53.209Z,39.00
2019-04-21T13:39:35.966Z,37.80
2019-04-21T13:42:23.430Z,38.30
2019-04-21T13:45:18.332Z,37.80
2019-04-21T13:48:24.355Z,38.80
2019-04-21T13:51:29.239Z,36.70
2019-04-21T13:54:33.848Z,36.20
2019-04-21T13:57:38.793Z,35.80
2019-04-21T14:00:42.953Z,35.30
2019-04-21T14:03:47.282Z,34.60
2019-04-21T14:06:54.257Z,34.40
2019-04-21T14:10:04.373Z,34.00
2019-04-21T14:13:06.614Z,33.10
2019-04-21T14:16:11.817Z,33.50
2019-04-21T14:19:16.948Z,33.70
2019-04-21T14:22:23.913Z,33.20
2019-04-21T14:25:29.884Z,33.10
2019-04-21T14:28:33.961Z,33.60
2019-04-21T14:31:38.254Z,33.90
2019-04-21T14:34:43.988Z,33.10
2019-04-21T14:37:48.808Z,34.10
2019-04-21T14:40:52.847Z,32.70
2019-04-21T14:43:58.523Z,31.70
2019-04-21T14:47:23.129Z,31.00
2019-04-21T14:50:38.419Z,31.10
2019-04-21T14:53:47.799Z,30.60
2019-04-21T14:56:51.628Z,30.90
2019-04-21T14:59:57.208Z,30.80
2019-04-21T15:03:03.717Z,31.30
2019-04-21T15:06:07.828Z,30.30
2019-04-21T15:09:13.363Z,30.80
2019-04-21T15:12:18.282Z,30.30
2019-04-21T15:15:23.399Z,30.10
2019-04-21T15:18:28.578Z,30.30
2019-04-21T15:21:33.870Z,31.10
2019-04-21T15:24:40.468Z,33.00
2019-04-21T15:27:45.103Z,33.30
2019-04-21T15:30:50.480Z,33.90
2019-04-21T15:33:54.936Z,34.30
2019-04-21T15:36:59.877Z,34.00
2019-04-21T15:40:19.281Z,32.50
2019-04-21T15:43:15.095Z,33.00
2019-04-21T15:46:20.442Z,34.30
2019-04-21T15:49:28.327Z,34.70
2019-04-21T15:52:33.860Z,33.00
2019-04-21T15:55:42.975Z,34.10
2019-04-21T15:58:58.823Z,33.40
2019-04-21T16:02:06.284Z,34.50
2019-04-21T16:05:10.842Z,34.10
2019-04-21T16:08:16.276Z,34.50
2019-04-21T16:11:24.035Z,34.50
2019-04-21T16:14:29.034Z,32.90
2019-04-21T16:17:35.207Z,32.10
2019-04-21T16:20:39.855Z,32.80
2019-04-21T16:23:44.530Z,34.10
2019-04-21T16:26:48.807Z,35.50
2019-04-21T16:29:53.958Z,36.60
2019-04-21T16:32:57.878Z,35.40
2019-04-21T16:36:02.758Z,34.40
2019-04-21T16:39:09.516Z,34.20
2019-04-21T16:42:14.251Z,34.60
2019-04-21T16:45:18.918Z,34.80
2019-04-21T16:48:23.568Z,35.00
2019-04-21T16:51:28.595Z,34.90
2019-04-21T16:54:33.610Z,35.80
2019-04-21T16:57:39.812Z,35.20
2019-04-21T17:00:56.911Z,35.60
2019-04-21T17:03:52.662Z,36.00
2019-04-21T17:06:56.855Z,35.80
2019-04-21T17:10:00.715Z,35.90
2019-04-21T17:13:09.889Z,36.00
2019-04-21T17:16:44.706Z,36.40
2019-04-21T17:19:27.821Z,36.90
2019-04-21T17:22:27.838Z,37.70
2019-04-21T17:25:32.299Z,38.40
2019-04-21T17:28:36.666Z,38.90
2019-04-21T17:31:41.623Z,39.40
2019-04-21T17:34:45.873Z,40.20
2019-04-21T17:37:52.087Z,40.70
2019-04-21T17:41:09.405Z,41.10
2019-04-21T17:44:02.770Z,41.40
2019-04-21T17:47:21.788Z,42.50
2019-04-21T17:49:37.175Z,42.10
2019-04-21T17:52:16.838Z,42.20
2019-04-21T17:55:09.162Z,42.30
2019-04-21T17:57:52.111Z,42.40
2019-04-21T18:00:23.954Z,42.30
2019-04-21T18:02:47.815Z,42.40
2019-04-21T18:05:19.434Z,42.50
2019-04-21T18:07:58.619Z,42.50
2019-04-21T18:10:07.784Z,43.30
2019-04-21T18:12:35.986Z,42.60
2019-04-21T18:15:03.975Z,42.80
2019-04-21T18:17:18.448Z,42.90
2019-04-21T18:19:47.498Z,43.30
2019-04-21T18:22:28.438Z,43.50
2019-04-21T18:24:59.271Z,43.90
2019-04-21T18:27:21.802Z,44.30
2019-04-21T18:29:52.249Z,44.80
2019-04-21T18:32:26.375Z,45.30
2019-04-21T18:34:55.227Z,45.70
2019-04-21T18:37:38.312Z,45.90
2019-04-21T18:40:06.824Z,46.30
2019-04-21T18:42:47.812Z,46.40
2019-04-21T18:45:41.419Z,46.60
2019-04-21T18:47:55.467Z,46.80
2019-04-21T18:50:29.382Z,47.10
2019-04-21T18:53:13.439Z,47.40
2019-04-21T18:55:34.361Z,47.70
2019-04-21T18:57:56.510Z,48.40
2019-04-21T19:00:30.695Z,49.20
2019-04-21T19:02:57.630Z,50.10
2019-04-21T19:05:24.564Z,50.90
2019-04-21T19:08:08.923Z,51.60
2019-04-21T19:10:43.534Z,52.70
2019-04-21T19:13:32.631Z,53.40
2019-04-21T19:15:34.320Z,54.20
2019-04-21T19:20:34.854Z,55.60
2019-04-21T19:22:57.014Z,56.10
2019-04-21T19:25:39.228Z,56.40
2019-04-21T19:28:03.462Z,56.60
2019-04-21T19:30:38.498Z,57.00
2019-04-21T19:32:58.385Z,57.80
2019-04-21T19:35:07.856Z,58.40
2019-04-21T19:37:43.963Z,58.60
2019-04-21T19:40:17.537Z,59.10
2019-04-21T19:42:45.336Z,60.60
2019-04-21T19:45:17.634Z,60.50
2019-04-21T19:47:56.712Z,61.30
2019-04-21T19:50:23.464Z,61.50
2019-04-21T19:52:44.010Z,61.90
2019-04-21T19:55:04.504Z,62.40
2019-04-21T19:57:31.309Z,62.90
2019-04-21T20:00:00.320Z,64.10
2019-04-21T20:02:26.802Z,63.90
2019-04-21T20:05:03.115Z,64.10
2019-04-21T20:07:36.288Z,64.30
2019-04-21T20:10:14.319Z,64.40
2019-04-21T20:12:39.833Z,64.90
2019-04-21T20:15:16.716Z,65.20
2019-04-21T20:17:35.155Z,65.10
2019-04-21T20:19:45.853Z,65.60
2019-04-21T20:22:12.597Z,66.70
2019-04-21T20:24:49.915Z,66.10
2019-04-21T20:27:17.715Z,66.60
2019-04-21T20:29:57.922Z,66.90
2019-04-21T20:32:38.196Z,67.40
2019-04-21T20:34:56.139Z,67.40
2019-04-21T20:37:21.204Z,67.90
2019-04-21T20:39:45.624Z,68.50
2019-04-21T20:42:16.582Z,68.50
2019-04-21T20:44:45.155Z,68.40
2019-04-21T20:47:07.418Z,69.00
2019-04-21T20:49:35.230Z,69.30
2019-04-21T20:52:17.255Z,69.90
2019-04-21T20:54:43.718Z,71.10
2019-04-21T20:57:06.229Z,70.30
2019-04-21T20:59:35.680Z,70.50
2019-04-21T21:02:07.021Z,71.00
2019-04-21T21:04:28.012Z,71.10
2019-04-21T21:07:06.205Z,71.30
2019-04-21T21:09:29.325Z,71.20
2019-04-21T21:12:15.589Z,71.80
2019-04-21T21:14:27.913Z,72.20
2019-04-21T21:16:58.510Z,72.60
2019-04-21T21:19:33.320Z,72.80
2019-04-21T21:21:48.584Z,72.90
2019-04-21T21:24:24.612Z,73.00
2019-04-21T21:26:53.988Z,73.70
2019-04-21T21:29:20.853Z,74.00
2019-04-21T21:31:48.869Z,73.90
2019-04-21T21:34:25.749Z,74.00
2019-04-21T21:36:51.046Z,74.00
2019-04-21T21:39:12.729Z,74.20
2019-04-21T21:41:31.891Z,74.80
2019-04-21T21:44:03.894Z,75.10
2019-04-21T21:46:35.538Z,75.20
2019-04-21T21:49:01.947Z,75.00
2019-04-21T21:51:33.055Z,75.10
2019-04-21T21:53:46.937Z,74.90
2019-04-21T21:56:14.500Z,74.70
2019-04-21T21:58:43.976Z,74.60
2019-04-21T22:01:13.194Z,74.60
2019-04-21T22:03:45.150Z,75.00
2019-04-21T22:06:13.899Z,75.70
2019-04-21T22:08:40.583Z,76.00
2019-04-21T22:11:07.262Z,76.20
2019-04-21T22:13:46.938Z,76.20
2019-04-21T22:16:10.413Z,76.50
2019-04-21T22:18:56.532Z,77.10
2019-04-21T22:21:17.303Z,77.50
2019-04-21T22:23:39.856Z,77.60
2019-04-21T22:26:01.039Z,77.50
2019-04-21T22:28:30.099Z,77.90
2019-04-21T22:30:57.091Z,78.10
2019-04-21T22:33:25.906Z,78.70
2019-04-21T22:36:02.294Z,78.60
2019-04-21T22:38:38.588Z,79.20
2019-04-21T22:41:02.941Z,78.40
2019-04-21T22:43:26.368Z,78.60
2019-04-21T22:45:47.340Z,78.50
2019-04-21T22:48:19.189Z,78.90
2019-04-21T22:50:44.443Z,79.10
2019-04-21T22:53:13.764Z,79.20
2019-04-21T22:55:40.844Z,79.30
2019-04-21T22:58:09.609Z,78.70
2019-04-21T23:00:41.366Z,78.90
2019-04-21T23:03:10.685Z,79.20
2019-04-21T23:05:37.530Z,79.50
2019-04-21T23:08:06.555Z,79.50
2019-04-21T23:10:31.557Z,79.70
2019-04-21T23:13:05.722Z,79.90
2019-04-21T23:15:34.626Z,79.10
2019-04-21T23:18:12.991Z,78.90
2019-04-21T23:20:46.555Z,78.90
2019-04-21T23:23:15.112Z,78.60
2019-04-21T23:25:40.504Z,78.80
2019-04-21T23:28:09.115Z,79.10
2019-04-21T23:30:45.425Z,79.10
2019-04-21T23:32:57.004Z,78.80
2019-04-21T23:35:25.759Z,78.50
2019-04-21T23:37:51.036Z,78.80
2019-04-21T23:40:19.900Z,78.70
2019-04-21T23:42:45.316Z,78.90
2019-04-21T23:45:12.405Z,79.20
2019-04-21T23:47:46.857Z,79.00
2019-04-21T23:50:19.940Z,78.80
2019-04-21T23:52:37.377Z,79.20
2019-04-21T23:55:05.238Z,79.20
2019-04-21T23:57:38.013Z,79.60
